sensor_id;sensor_type;location;lat;lon;timestamp;P1;durP1;ratioP1;P2;durP2;ratioP2
75584;SDS011;64162;53.508;10.476;2024-02-26T00:01:46;5.90;;;4.00;;
75584;SDS011;64162;53.508;10.476;2024-02-26T00:04:13;6.60;;;4.05;;
75584;SDS011;64162;53.508;10.476;2024-02-26T00:06:40;5.90;;;3.25;;
75584;SDS011;64162;53.508;10.476;2024-02-26T00:09:07;5.43;;;3.92;;
75584;SDS011;64162;53.508;10.476;2024-02-26T00:11:35;5.72;;;3.97;;
75584;SDS011;64162;53.508;10.476;2024-02-26T00:14:03;5.90;;;3.88;;
75584;SDS011;64162;53.508;10.476;2024-02-26T00:16:30;6.25;;;3.95;;
75584;SDS011;64162;53.508;10.476;2024-02-26T00:18:57;6.55;;;3.88;;
75584;SDS011;64162;53.508;10.476;2024-02-26T00:21:24;7.50;;;4.43;;
75584;SDS011;64162;53.508;10.476;2024-02-26T00:23:52;6.28;;;4.25;;
75584;SDS011;64162;53.508;10.476;2024-02-26T00:26:19;6.43;;;3.90;;
75584;SDS011;64162;53.508;10.476;2024-02-26T00:28:46;7.03;;;4.35;;
75584;SDS011;64162;53.508;10.476;2024-02-26T00:31:12;7.63;;;4.22;;
75584;SDS011;64162;53.508;10.476;2024-02-26T00:36:05;5.70;;;3.60;;
75584;SDS011;64162;53.508;10.476;2024-02-26T00:40:59;6.35;;;4.00;;
75584;SDS011;64162;53.508;10.476;2024-02-26T00:43:25;5.53;;;3.75;;
75584;SDS011;64162;53.508;10.476;2024-02-26T00:45:52;5.70;;;4.13;;
75584;SDS011;64162;53.508;10.476;2024-02-26T00:48:19;6.47;;;3.85;;
75584;SDS011;64162;53.508;10.476;2024-02-26T00:53:12;5.93;;;3.75;;
75584;SDS011;64162;53.508;10.476;2024-02-26T00:55:38;6.25;;;3.72;;
75584;SDS011;64162;53.508;10.476;2024-02-26T01:00:32;6.25;;;3.83;;
75584;SDS011;64162;53.508;10.476;2024-02-26T01:02:58;5.22;;;3.70;;
75584;SDS011;64162;53.508;10.476;2024-02-26T01:05:26;6.32;;;3.97;;
75584;SDS011;64162;53.508;10.476;2024-02-26T01:10:19;7.30;;;4.00;;
75584;SDS011;64162;53.508;10.476;2024-02-26T01:12:46;6.07;;;3.75;;
75584;SDS011;64162;53.508;10.476;2024-02-26T01:15:12;8.45;;;5.03;;
75584;SDS011;64162;53.508;10.476;2024-02-26T01:17:39;7.47;;;4.65;;
75584;SDS011;64162;53.508;10.476;2024-02-26T01:20:06;7.60;;;4.25;;
75584;SDS011;64162;53.508;10.476;2024-02-26T01:22:32;6.28;;;4.10;;
75584;SDS011;64162;53.508;10.476;2024-02-26T01:24:59;6.15;;;3.92;;
75584;SDS011;64162;53.508;10.476;2024-02-26T01:27:25;6.30;;;3.67;;
75584;SDS011;64162;53.508;10.476;2024-02-26T01:29:53;5.88;;;3.83;;
75584;SDS011;64162;53.508;10.476;2024-02-26T01:32:20;6.70;;;3.85;;
75584;SDS011;64162;53.508;10.476;2024-02-26T01:37:13;5.32;;;3.40;;
75584;SDS011;64162;53.508;10.476;2024-02-26T01:39:39;6.90;;;3.80;;
75584;SDS011;64162;53.508;10.476;2024-02-26T01:42:07;5.90;;;3.50;;
75584;SDS011;64162;53.508;10.476;2024-02-26T01:44:34;6.28;;;3.45;;
75584;SDS011;64162;53.508;10.476;2024-02-26T01:47:01;4.85;;;3.65;;
75584;SDS011;64162;53.508;10.476;2024-02-26T01:49:29;4.60;;;3.00;;
75584;SDS011;64162;53.508;10.476;2024-02-26T01:51:56;6.22;;;3.30;;
75584;SDS011;64162;53.508;10.476;2024-02-26T01:54:24;5.13;;;2.90;;
75584;SDS011;64162;53.508;10.476;2024-02-26T01:56:51;4.90;;;3.08;;
75584;SDS011;64162;53.508;10.476;2024-02-26T02:01:45;5.38;;;3.20;;
75584;SDS011;64162;53.508;10.476;2024-02-26T02:04:14;4.18;;;3.00;;
75584;SDS011;64162;53.508;10.476;2024-02-26T02:06:42;5.50;;;2.90;;
75584;SDS011;64162;53.508;10.476;2024-02-26T02:09:11;5.18;;;2.80;;
75584;SDS011;64162;53.508;10.476;2024-02-26T02:11:38;5.13;;;2.95;;
75584;SDS011;64162;53.508;10.476;2024-02-26T02:14:05;4.57;;;2.95;;
75584;SDS011;64162;53.508;10.476;2024-02-26T02:16:32;4.75;;;2.92;;
75584;SDS011;64162;53.508;10.476;2024-02-26T02:18:59;6.30;;;2.97;;
75584;SDS011;64162;53.508;10.476;2024-02-26T02:21:25;5.60;;;3.10;;
75584;SDS011;64162;53.508;10.476;2024-02-26T02:23:52;6.93;;;4.10;;
75584;SDS011;64162;53.508;10.476;2024-02-26T02:26:18;6.90;;;3.28;;
75584;SDS011;64162;53.508;10.476;2024-02-26T02:28:46;6.60;;;3.40;;
75584;SDS011;64162;53.508;10.476;2024-02-26T02:31:14;6.50;;;3.70;;
75584;SDS011;64162;53.508;10.476;2024-02-26T02:33:41;6.13;;;3.20;;
75584;SDS011;64162;53.508;10.476;2024-02-26T02:36:08;5.00;;;3.30;;
75584;SDS011;64162;53.508;10.476;2024-02-26T02:38:37;6.72;;;3.33;;
75584;SDS011;64162;53.508;10.476;2024-02-26T02:41:04;5.57;;;3.20;;
75584;SDS011;64162;53.508;10.476;2024-02-26T02:43:31;5.18;;;3.15;;
75584;SDS011;64162;53.508;10.476;2024-02-26T02:45:57;8.75;;;3.42;;
75584;SDS011;64162;53.508;10.476;2024-02-26T02:48:24;6.50;;;3.45;;
75584;SDS011;64162;53.508;10.476;2024-02-26T02:50:51;5.00;;;3.17;;
75584;SDS011;64162;53.508;10.476;2024-02-26T02:53:17;5.07;;;3.13;;
75584;SDS011;64162;53.508;10.476;2024-02-26T02:55:44;6.50;;;3.58;;
75584;SDS011;64162;53.508;10.476;2024-02-26T02:58:11;5.45;;;3.17;;
75584;SDS011;64162;53.508;10.476;2024-02-26T03:00:37;5.63;;;2.95;;
75584;SDS011;64162;53.508;10.476;2024-02-26T03:03:04;5.60;;;3.60;;
75584;SDS011;64162;53.508;10.476;2024-02-26T03:05:31;6.75;;;3.30;;
75584;SDS011;64162;53.508;10.476;2024-02-26T03:07:58;4.93;;;3.03;;
75584;SDS011;64162;53.508;10.476;2024-02-26T03:10:24;5.50;;;3.08;;
75584;SDS011;64162;53.508;10.476;2024-02-26T03:12:51;5.35;;;3.20;;
75584;SDS011;64162;53.508;10.476;2024-02-26T03:15:18;6.43;;;3.63;;
75584;SDS011;64162;53.508;10.476;2024-02-26T03:17:44;5.93;;;3.60;;
75584;SDS011;64162;53.508;10.476;2024-02-26T03:20:11;6.57;;;3.35;;
75584;SDS011;64162;53.508;10.476;2024-02-26T03:25:05;5.07;;;2.88;;
75584;SDS011;64162;53.508;10.476;2024-02-26T03:27:32;5.15;;;3.15;;
75584;SDS011;64162;53.508;10.476;2024-02-26T03:29:58;5.80;;;3.60;;
75584;SDS011;64162;53.508;10.476;2024-02-26T03:32:25;5.47;;;3.22;;
75584;SDS011;64162;53.508;10.476;2024-02-26T03:34:52;4.80;;;2.97;;
75584;SDS011;64162;53.508;10.476;2024-02-26T03:37:21;5.35;;;3.55;;
75584;SDS011;64162;53.508;10.476;2024-02-26T03:42:14;6.18;;;3.35;;
75584;SDS011;64162;53.508;10.476;2024-02-26T03:44:42;6.18;;;3.22;;
75584;SDS011;64162;53.508;10.476;2024-02-26T03:47:09;6.18;;;3.22;;
75584;SDS011;64162;53.508;10.476;2024-02-26T03:52:02;5.10;;;2.83;;
75584;SDS011;64162;53.508;10.476;2024-02-26T03:54:29;5.18;;;2.72;;
75584;SDS011;64162;53.508;10.476;2024-02-26T03:56:55;5.32;;;3.38;;
75584;SDS011;64162;53.508;10.476;2024-02-26T03:59:22;4.93;;;3.08;;
75584;SDS011;64162;53.508;10.476;2024-02-26T04:01:51;4.97;;;2.90;;
75584;SDS011;64162;53.508;10.476;2024-02-26T04:04:17;5.07;;;3.13;;
75584;SDS011;64162;53.508;10.476;2024-02-26T04:06:47;6.45;;;3.28;;
75584;SDS011;64162;53.508;10.476;2024-02-26T04:09:14;4.85;;;2.70;;
75584;SDS011;64162;53.508;10.476;2024-02-26T04:11:41;5.28;;;3.20;;
75584;SDS011;64162;53.508;10.476;2024-02-26T04:14:09;5.45;;;3.00;;
75584;SDS011;64162;53.508;10.476;2024-02-26T04:16:38;5.28;;;3.10;;
75584;SDS011;64162;53.508;10.476;2024-02-26T04:19:05;4.97;;;2.70;;
75584;SDS011;64162;53.508;10.476;2024-02-26T04:21:33;5.47;;;3.00;;
75584;SDS011;64162;53.508;10.476;2024-02-26T04:24:01;4.57;;;2.70;;
75584;SDS011;64162;53.508;10.476;2024-02-26T04:26:28;4.72;;;2.90;;
75584;SDS011;64162;53.508;10.476;2024-02-26T04:28:56;5.63;;;3.20;;
75584;SDS011;64162;53.508;10.476;2024-02-26T04:31:22;6.85;;;3.75;;
75584;SDS011;64162;53.508;10.476;2024-02-26T04:33:49;6.78;;;3.83;;
75584;SDS011;64162;53.508;10.476;2024-02-26T04:36:16;5.68;;;3.33;;
75584;SDS011;64162;53.508;10.476;2024-02-26T04:38:43;6.93;;;3.50;;
75584;SDS011;64162;53.508;10.476;2024-02-26T04:41:10;7.15;;;4.05;;
75584;SDS011;64162;53.508;10.476;2024-02-26T04:46:08;5.50;;;2.80;;
75584;SDS011;64162;53.508;10.476;2024-02-26T04:48:35;5.70;;;3.50;;
75584;SDS011;64162;53.508;10.476;2024-02-26T04:51:02;5.95;;;3.50;;
75584;SDS011;64162;53.508;10.476;2024-02-26T04:53:29;4.43;;;2.85;;
75584;SDS011;64162;53.508;10.476;2024-02-26T04:55:56;6.82;;;3.53;;
75584;SDS011;64162;53.508;10.476;2024-02-26T04:58:22;6.18;;;3.67;;
75584;SDS011;64162;53.508;10.476;2024-02-26T05:00:49;5.43;;;2.97;;
75584;SDS011;64162;53.508;10.476;2024-02-26T05:03:16;6.55;;;3.10;;
75584;SDS011;64162;53.508;10.476;2024-02-26T05:05:43;5.97;;;3.20;;
75584;SDS011;64162;53.508;10.476;2024-02-26T05:08:09;7.22;;;3.67;;
75584;SDS011;64162;53.508;10.476;2024-02-26T05:13:08;5.60;;;3.13;;
75584;SDS011;64162;53.508;10.476;2024-02-26T05:15:36;6.07;;;3.10;;
75584;SDS011;64162;53.508;10.476;2024-02-26T05:18:03;4.90;;;3.03;;
75584;SDS011;64162;53.508;10.476;2024-02-26T05:20:30;6.95;;;3.50;;
75584;SDS011;64162;53.508;10.476;2024-02-26T05:22:57;6.05;;;3.33;;
75584;SDS011;64162;53.508;10.476;2024-02-26T05:25:25;5.95;;;3.30;;
75584;SDS011;64162;53.508;10.476;2024-02-26T05:27:51;7.68;;;3.72;;
75584;SDS011;64162;53.508;10.476;2024-02-26T05:30:18;6.68;;;3.20;;
75584;SDS011;64162;53.508;10.476;2024-02-26T05:35:11;4.88;;;2.92;;
75584;SDS011;64162;53.508;10.476;2024-02-26T05:37:38;5.88;;;3.30;;
75584;SDS011;64162;53.508;10.476;2024-02-26T05:40:05;5.68;;;3.22;;
75584;SDS011;64162;53.508;10.476;2024-02-26T05:42:32;6.03;;;3.47;;
75584;SDS011;64162;53.508;10.476;2024-02-26T05:44:59;4.65;;;3.00;;
75584;SDS011;64162;53.508;10.476;2024-02-26T05:47:34;5.72;;;3.53;;
75584;SDS011;64162;53.508;10.476;2024-02-26T05:50:02;5.43;;;3.45;;
75584;SDS011;64162;53.508;10.476;2024-02-26T05:52:28;5.50;;;3.20;;
75584;SDS011;64162;53.508;10.476;2024-02-26T05:54:59;4.60;;;2.83;;
75584;SDS011;64162;53.508;10.476;2024-02-26T05:57:25;4.47;;;2.85;;
75584;SDS011;64162;53.508;10.476;2024-02-26T05:59:52;5.13;;;3.33;;
75584;SDS011;64162;53.508;10.476;2024-02-26T06:02:18;7.13;;;3.45;;
75584;SDS011;64162;53.508;10.476;2024-02-26T06:04:45;5.75;;;3.05;;
75584;SDS011;64162;53.508;10.476;2024-02-26T06:07:12;5.00;;;3.22;;
75584;SDS011;64162;53.508;10.476;2024-02-26T06:09:39;5.88;;;3.33;;
75584;SDS011;64162;53.508;10.476;2024-02-26T06:12:06;7.38;;;3.80;;
75584;SDS011;64162;53.508;10.476;2024-02-26T06:14:33;6.32;;;3.35;;
75584;SDS011;64162;53.508;10.476;2024-02-26T06:16:59;6.78;;;3.90;;
75584;SDS011;64162;53.508;10.476;2024-02-26T06:19:26;7.65;;;4.03;;
75584;SDS011;64162;53.508;10.476;2024-02-26T06:21:52;6.18;;;3.72;;
75584;SDS011;64162;53.508;10.476;2024-02-26T06:24:19;6.43;;;4.28;;
75584;SDS011;64162;53.508;10.476;2024-02-26T06:26:47;7.70;;;4.88;;
75584;SDS011;64162;53.508;10.476;2024-02-26T06:29:14;7.57;;;4.82;;
75584;SDS011;64162;53.508;10.476;2024-02-26T06:31:41;6.40;;;4.20;;
75584;SDS011;64162;53.508;10.476;2024-02-26T06:34:07;7.95;;;4.03;;
75584;SDS011;64162;53.508;10.476;2024-02-26T06:36:34;6.75;;;3.65;;
75584;SDS011;64162;53.508;10.476;2024-02-26T06:39:01;5.38;;;3.47;;
75584;SDS011;64162;53.508;10.476;2024-02-26T06:41:28;6.68;;;4.07;;
75584;SDS011;64162;53.508;10.476;2024-02-26T06:43:56;6.05;;;4.07;;
75584;SDS011;64162;53.508;10.476;2024-02-26T06:46:22;5.63;;;4.05;;
75584;SDS011;64162;53.508;10.476;2024-02-26T06:51:19;6.53;;;3.60;;
75584;SDS011;64162;53.508;10.476;2024-02-26T06:53:45;6.20;;;4.10;;
75584;SDS011;64162;53.508;10.476;2024-02-26T06:56:12;5.15;;;3.40;;
75584;SDS011;64162;53.508;10.476;2024-02-26T06:58:38;6.55;;;3.80;;
75584;SDS011;64162;53.508;10.476;2024-02-26T07:01:05;5.60;;;3.40;;
75584;SDS011;64162;53.508;10.476;2024-02-26T07:03:32;7.72;;;3.60;;
75584;SDS011;64162;53.508;10.476;2024-02-26T07:05:59;5.72;;;3.63;;
75584;SDS011;64162;53.508;10.476;2024-02-26T07:08:25;6.25;;;3.83;;
75584;SDS011;64162;53.508;10.476;2024-02-26T07:10:52;5.03;;;3.25;;
75584;SDS011;64162;53.508;10.476;2024-02-26T07:13:19;8.00;;;3.45;;
75584;SDS011;64162;53.508;10.476;2024-02-26T07:15:45;5.35;;;3.60;;
75584;SDS011;64162;53.508;10.476;2024-02-26T07:18:12;5.65;;;3.35;;
75584;SDS011;64162;53.508;10.476;2024-02-26T07:20:39;5.63;;;3.22;;
75584;SDS011;64162;53.508;10.476;2024-02-26T07:23:05;7.75;;;4.10;;
75584;SDS011;64162;53.508;10.476;2024-02-26T07:25:33;6.43;;;3.30;;
75584;SDS011;64162;53.508;10.476;2024-02-26T07:27:59;5.75;;;3.38;;
75584;SDS011;64162;53.508;10.476;2024-02-26T07:30:26;6.18;;;3.58;;
75584;SDS011;64162;53.508;10.476;2024-02-26T07:32:52;5.32;;;3.05;;
75584;SDS011;64162;53.508;10.476;2024-02-26T07:35:19;7.00;;;3.78;;
75584;SDS011;64162;53.508;10.476;2024-02-26T07:37:47;5.72;;;3.55;;
75584;SDS011;64162;53.508;10.476;2024-02-26T07:40:15;5.90;;;3.45;;
75584;SDS011;64162;53.508;10.476;2024-02-26T07:42:42;5.40;;;3.72;;
75584;SDS011;64162;53.508;10.476;2024-02-26T07:45:09;5.18;;;3.35;;
75584;SDS011;64162;53.508;10.476;2024-02-26T07:47:36;5.32;;;3.63;;
75584;SDS011;64162;53.508;10.476;2024-02-26T07:50:04;5.55;;;3.78;;
75584;SDS011;64162;53.508;10.476;2024-02-26T07:52:31;8.20;;;4.80;;
75584;SDS011;64162;53.508;10.476;2024-02-26T07:54:57;8.40;;;4.88;;
75584;SDS011;64162;53.508;10.476;2024-02-26T07:57:24;6.43;;;3.95;;
75584;SDS011;64162;53.508;10.476;2024-02-26T07:59:50;6.03;;;3.60;;
75584;SDS011;64162;53.508;10.476;2024-02-26T08:02:17;5.70;;;3.47;;
75584;SDS011;64162;53.508;10.476;2024-02-26T08:04:44;5.60;;;3.55;;
75584;SDS011;64162;53.508;10.476;2024-02-26T08:07:10;6.28;;;3.88;;
75584;SDS011;64162;53.508;10.476;2024-02-26T08:09:37;6.20;;;3.70;;
75584;SDS011;64162;53.508;10.476;2024-02-26T08:12:03;5.03;;;3.78;;
75584;SDS011;64162;53.508;10.476;2024-02-26T08:14:30;7.88;;;3.92;;
75584;SDS011;64162;53.508;10.476;2024-02-26T08:16:59;5.22;;;3.17;;
75584;SDS011;64162;53.508;10.476;2024-02-26T08:21:52;4.57;;;3.03;;
75584;SDS011;64162;53.508;10.476;2024-02-26T08:24:19;4.50;;;3.10;;
75584;SDS011;64162;53.508;10.476;2024-02-26T08:26:45;6.45;;;3.60;;
75584;SDS011;64162;53.508;10.476;2024-02-26T08:29:12;5.35;;;3.47;;
75584;SDS011;64162;53.508;10.476;2024-02-26T08:31:39;5.40;;;3.20;;
75584;SDS011;64162;53.508;10.476;2024-02-26T08:34:05;7.30;;;3.78;;
75584;SDS011;64162;53.508;10.476;2024-02-26T08:36:33;6.07;;;3.28;;
75584;SDS011;64162;53.508;10.476;2024-02-26T08:39:00;4.28;;;2.90;;
75584;SDS011;64162;53.508;10.476;2024-02-26T08:41:26;5.18;;;3.00;;
75584;SDS011;64162;53.508;10.476;2024-02-26T08:46:20;5.07;;;2.95;;
75584;SDS011;64162;53.508;10.476;2024-02-26T08:48:47;6.03;;;3.67;;
75584;SDS011;64162;53.508;10.476;2024-02-26T08:53:40;5.22;;;3.10;;
75584;SDS011;64162;53.508;10.476;2024-02-26T08:58:33;5.00;;;3.17;;
75584;SDS011;64162;53.508;10.476;2024-02-26T09:01:00;5.35;;;3.38;;
75584;SDS011;64162;53.508;10.476;2024-02-26T09:05:53;5.38;;;2.55;;
75584;SDS011;64162;53.508;10.476;2024-02-26T09:08:20;5.25;;;3.47;;
75584;SDS011;64162;53.508;10.476;2024-02-26T09:10:49;5.07;;;3.17;;
75584;SDS011;64162;53.508;10.476;2024-02-26T09:13:16;5.88;;;3.47;;
75584;SDS011;64162;53.508;10.476;2024-02-26T09:15:43;4.20;;;3.40;;
75584;SDS011;64162;53.508;10.476;2024-02-26T09:18:09;6.63;;;3.33;;
75584;SDS011;64162;53.508;10.476;2024-02-26T09:23:02;4.10;;;2.80;;
75584;SDS011;64162;53.508;10.476;2024-02-26T09:25:30;4.30;;;3.25;;
75584;SDS011;64162;53.508;10.476;2024-02-26T09:27:56;5.55;;;3.40;;
75584;SDS011;64162;53.508;10.476;2024-02-26T09:30:23;5.15;;;3.38;;
75584;SDS011;64162;53.508;10.476;2024-02-26T09:32:49;4.25;;;2.55;;
75584;SDS011;64162;53.508;10.476;2024-02-26T09:35:16;4.43;;;2.90;;
75584;SDS011;64162;53.508;10.476;2024-02-26T09:37:43;5.10;;;3.20;;
75584;SDS011;64162;53.508;10.476;2024-02-26T09:40:10;3.08;;;2.17;;
75584;SDS011;64162;53.508;10.476;2024-02-26T09:42:41;4.70;;;3.60;;
75584;SDS011;64162;53.508;10.476;2024-02-26T09:45:12;2.85;;;2.33;;
75584;SDS011;64162;53.508;10.476;2024-02-26T09:47:44;4.00;;;2.92;;
75584;SDS011;64162;53.508;10.476;2024-02-26T09:50:14;5.82;;;3.45;;
75584;SDS011;64162;53.508;10.476;2024-02-26T09:52:44;4.20;;;2.65;;
75584;SDS011;64162;53.508;10.476;2024-02-26T09:55:10;4.43;;;2.80;;
75584;SDS011;64162;53.508;10.476;2024-02-26T09:57:37;5.40;;;3.47;;
75584;SDS011;64162;53.508;10.476;2024-02-26T10:00:07;4.75;;;2.85;;
75584;SDS011;64162;53.508;10.476;2024-02-26T10:02:36;5.90;;;3.67;;
75584;SDS011;64162;53.508;10.476;2024-02-26T10:05:05;4.25;;;2.97;;
75584;SDS011;64162;53.508;10.476;2024-02-26T10:07:36;6.63;;;3.83;;
75584;SDS011;64162;53.508;10.476;2024-02-26T10:10:03;4.95;;;3.35;;
75584;SDS011;64162;53.508;10.476;2024-02-26T10:12:30;7.55;;;4.40;;
75584;SDS011;64162;53.508;10.476;2024-02-26T10:14:58;6.60;;;4.20;;
75584;SDS011;64162;53.508;10.476;2024-02-26T10:17:25;3.30;;;2.67;;
75584;SDS011;64162;53.508;10.476;2024-02-26T10:19:52;5.75;;;3.47;;
75584;SDS011;64162;53.508;10.476;2024-02-26T10:22:22;8.02;;;4.68;;
75584;SDS011;64162;53.508;10.476;2024-02-26T10:24:49;6.40;;;4.05;;
75584;SDS011;64162;53.508;10.476;2024-02-26T10:27:15;6.00;;;3.90;;
75584;SDS011;64162;53.508;10.476;2024-02-26T10:29:42;7.60;;;4.28;;
75584;SDS011;64162;53.508;10.476;2024-02-26T10:32:09;7.57;;;4.38;;
75584;SDS011;64162;53.508;10.476;2024-02-26T10:34:37;3.50;;;2.80;;
75584;SDS011;64162;53.508;10.476;2024-02-26T10:37:05;5.90;;;3.60;;
75584;SDS011;64162;53.508;10.476;2024-02-26T10:39:31;4.80;;;3.15;;
75584;SDS011;64162;53.508;10.476;2024-02-26T10:44:27;6.28;;;3.97;;
75584;SDS011;64162;53.508;10.476;2024-02-26T10:49:21;4.28;;;3.10;;
75584;SDS011;64162;53.508;10.476;2024-02-26T10:51:56;6.47;;;3.30;;
75584;SDS011;64162;53.508;10.476;2024-02-26T10:54:26;6.18;;;4.18;;
75584;SDS011;64162;53.508;10.476;2024-02-26T10:56:56;7.55;;;4.60;;
75584;SDS011;64162;53.508;10.476;2024-02-26T10:59:24;7.18;;;4.57;;
75584;SDS011;64162;53.508;10.476;2024-02-26T11:01:51;9.38;;;4.43;;
75584;SDS011;64162;53.508;10.476;2024-02-26T11:04:18;8.30;;;5.07;;
75584;SDS011;64162;53.508;10.476;2024-02-26T11:06:46;7.85;;;4.80;;
75584;SDS011;64162;53.508;10.476;2024-02-26T11:09:16;7.03;;;4.63;;
75584;SDS011;64162;53.508;10.476;2024-02-26T11:11:45;8.85;;;5.00;;
75584;SDS011;64162;53.508;10.476;2024-02-26T11:14:13;7.20;;;4.97;;
75584;SDS011;64162;53.508;10.476;2024-02-26T11:16:40;8.05;;;4.10;;
75584;SDS011;64162;53.508;10.476;2024-02-26T11:19:09;9.38;;;5.25;;
75584;SDS011;64162;53.508;10.476;2024-02-26T11:21:37;10.80;;;5.60;;
75584;SDS011;64162;53.508;10.476;2024-02-26T11:24:08;5.43;;;3.90;;
75584;SDS011;64162;53.508;10.476;2024-02-26T11:26:54;6.18;;;4.07;;
75584;SDS011;64162;53.508;10.476;2024-02-26T11:29:26;9.88;;;5.05;;
75584;SDS011;64162;53.508;10.476;2024-02-26T11:31:59;7.70;;;4.72;;
75584;SDS011;64162;53.508;10.476;2024-02-26T11:34:26;9.02;;;6.13;;
75584;SDS011;64162;53.508;10.476;2024-02-26T11:36:54;8.02;;;4.63;;
75584;SDS011;64162;53.508;10.476;2024-02-26T11:39:22;9.88;;;5.65;;
75584;SDS011;64162;53.508;10.476;2024-02-26T11:41:50;8.73;;;5.07;;
75584;SDS011;64162;53.508;10.476;2024-02-26T11:44:28;10.27;;;6.10;;
75584;SDS011;64162;53.508;10.476;2024-02-26T11:46:55;7.00;;;4.55;;
75584;SDS011;64162;53.508;10.476;2024-02-26T11:51:52;7.30;;;4.13;;
75584;SDS011;64162;53.508;10.476;2024-02-26T11:54:46;5.45;;;3.63;;
75584;SDS011;64162;53.508;10.476;2024-02-26T11:59:53;12.18;;;5.55;;
75584;SDS011;64162;53.508;10.476;2024-02-26T12:08:01;9.48;;;5.18;;
75584;SDS011;64162;53.508;10.476;2024-02-26T12:10:31;12.73;;;7.05;;
75584;SDS011;64162;53.508;10.476;2024-02-26T12:15:46;4.65;;;3.05;;
75584;SDS011;64162;53.508;10.476;2024-02-26T12:18:22;12.07;;;6.63;;
75584;SDS011;64162;53.508;10.476;2024-02-26T12:21:01;13.30;;;5.88;;
75584;SDS011;64162;53.508;10.476;2024-02-26T12:23:29;12.48;;;6.18;;
75584;SDS011;64162;53.508;10.476;2024-02-26T12:26:00;14.35;;;6.60;;
75584;SDS011;64162;53.508;10.476;2024-02-26T12:28:31;16.33;;;7.00;;
75584;SDS011;64162;53.508;10.476;2024-02-26T12:30:57;16.02;;;7.53;;
75584;SDS011;64162;53.508;10.476;2024-02-26T12:33:26;10.43;;;5.93;;
75584;SDS011;64162;53.508;10.476;2024-02-26T12:35:53;16.10;;;7.10;;
75584;SDS011;64162;53.508;10.476;2024-02-26T12:38:20;8.23;;;4.40;;
75584;SDS011;64162;53.508;10.476;2024-02-26T12:40:46;9.35;;;4.97;;
75584;SDS011;64162;53.508;10.476;2024-02-26T12:43:15;15.25;;;7.03;;
75584;SDS011;64162;53.508;10.476;2024-02-26T12:45:42;12.52;;;6.38;;
75584;SDS011;64162;53.508;10.476;2024-02-26T12:48:12;13.25;;;6.60;;
75584;SDS011;64162;53.508;10.476;2024-02-26T12:50:39;10.00;;;4.88;;
75584;SDS011;64162;53.508;10.476;2024-02-26T12:55:32;9.35;;;4.32;;
75584;SDS011;64162;53.508;10.476;2024-02-26T12:58:01;10.48;;;5.10;;
75584;SDS011;64162;53.508;10.476;2024-02-26T13:00:28;14.43;;;6.13;;
75584;SDS011;64162;53.508;10.476;2024-02-26T13:02:55;14.13;;;7.30;;
75584;SDS011;64162;53.508;10.476;2024-02-26T13:05:23;10.25;;;5.40;;
75584;SDS011;64162;53.508;10.476;2024-02-26T13:07:50;13.18;;;6.78;;
75584;SDS011;64162;53.508;10.476;2024-02-26T13:10:18;12.63;;;5.95;;
75584;SDS011;64162;53.508;10.476;2024-02-26T13:12:49;11.48;;;5.22;;
75584;SDS011;64162;53.508;10.476;2024-02-26T13:15:17;8.25;;;4.65;;
75584;SDS011;64162;53.508;10.476;2024-02-26T13:17:45;11.45;;;5.95;;
75584;SDS011;64162;53.508;10.476;2024-02-26T13:20:13;6.55;;;4.32;;
75584;SDS011;64162;53.508;10.476;2024-02-26T13:22:41;5.95;;;3.65;;
75584;SDS011;64162;53.508;10.476;2024-02-26T13:25:08;6.72;;;3.95;;
75584;SDS011;64162;53.508;10.476;2024-02-26T13:27:35;9.65;;;5.65;;
75584;SDS011;64162;53.508;10.476;2024-02-26T13:30:02;10.75;;;5.63;;
75584;SDS011;64162;53.508;10.476;2024-02-26T13:32:34;9.70;;;4.47;;
75584;SDS011;64162;53.508;10.476;2024-02-26T13:35:08;6.57;;;3.88;;
75584;SDS011;64162;53.508;10.476;2024-02-26T13:37:36;4.93;;;3.28;;
75584;SDS011;64162;53.508;10.476;2024-02-26T13:40:05;7.15;;;4.13;;
75584;SDS011;64162;53.508;10.476;2024-02-26T13:42:36;9.65;;;3.78;;
75584;SDS011;64162;53.508;10.476;2024-02-26T13:45:06;6.93;;;3.95;;
75584;SDS011;64162;53.508;10.476;2024-02-26T13:47:33;9.15;;;4.65;;
75584;SDS011;64162;53.508;10.476;2024-02-26T13:50:01;6.57;;;4.15;;
75584;SDS011;64162;53.508;10.476;2024-02-26T13:52:28;8.85;;;5.20;;
75584;SDS011;64162;53.508;10.476;2024-02-26T13:54:55;7.30;;;3.92;;
75584;SDS011;64162;53.508;10.476;2024-02-26T13:59:48;6.13;;;3.47;;
75584;SDS011;64162;53.508;10.476;2024-02-26T14:02:16;12.10;;;5.53;;
75584;SDS011;64162;53.508;10.476;2024-02-26T14:04:43;10.80;;;5.50;;
75584;SDS011;64162;53.508;10.476;2024-02-26T14:07:10;11.25;;;6.05;;
75584;SDS011;64162;53.508;10.476;2024-02-26T14:09:38;7.88;;;4.65;;
75584;SDS011;64162;53.508;10.476;2024-02-26T14:12:04;7.97;;;3.65;;
75584;SDS011;64162;53.508;10.476;2024-02-26T14:14:31;13.18;;;7.13;;
75584;SDS011;64162;53.508;10.476;2024-02-26T14:17:01;7.30;;;4.07;;
75584;SDS011;64162;53.508;10.476;2024-02-26T14:19:29;13.05;;;5.60;;
75584;SDS011;64162;53.508;10.476;2024-02-26T14:21:56;7.00;;;3.88;;
75584;SDS011;64162;53.508;10.476;2024-02-26T14:26:49;11.30;;;5.63;;
75584;SDS011;64162;53.508;10.476;2024-02-26T14:31:42;10.48;;;3.92;;
75584;SDS011;64162;53.508;10.476;2024-02-26T14:34:10;13.30;;;5.93;;
75584;SDS011;64162;53.508;10.476;2024-02-26T14:39:04;8.95;;;4.28;;
75584;SDS011;64162;53.508;10.476;2024-02-26T14:43:57;12.27;;;5.32;;
75584;SDS011;64162;53.508;10.476;2024-02-26T14:46:24;11.70;;;4.90;;
75584;SDS011;64162;53.508;10.476;2024-02-26T14:48:50;12.73;;;6.55;;
75584;SDS011;64162;53.508;10.476;2024-02-26T14:53:44;11.93;;;6.13;;
75584;SDS011;64162;53.508;10.476;2024-02-26T14:58:37;14.13;;;6.85;;
75584;SDS011;64162;53.508;10.476;2024-02-26T15:01:04;17.40;;;7.32;;
75584;SDS011;64162;53.508;10.476;2024-02-26T15:05:57;12.55;;;5.93;;
75584;SDS011;64162;53.508;10.476;2024-02-26T15:10:50;16.65;;;6.82;;
75584;SDS011;64162;53.508;10.476;2024-02-26T15:13:17;13.20;;;5.97;;
75584;SDS011;64162;53.508;10.476;2024-02-26T15:15:44;17.17;;;8.15;;
75584;SDS011;64162;53.508;10.476;2024-02-26T15:18:10;16.65;;;7.07;;
75584;SDS011;64162;53.508;10.476;2024-02-26T15:20:42;11.38;;;5.82;;
75584;SDS011;64162;53.508;10.476;2024-02-26T15:23:12;13.25;;;6.93;;
75584;SDS011;64162;53.508;10.476;2024-02-26T15:25:39;16.40;;;7.88;;
75584;SDS011;64162;53.508;10.476;2024-02-26T15:28:07;14.93;;;7.35;;
75584;SDS011;64162;53.508;10.476;2024-02-26T15:30:36;16.58;;;6.90;;
75584;SDS011;64162;53.508;10.476;2024-02-26T15:33:03;13.65;;;6.32;;
75584;SDS011;64162;53.508;10.476;2024-02-26T15:35:29;13.43;;;6.03;;
75584;SDS011;64162;53.508;10.476;2024-02-26T15:37:56;10.82;;;6.28;;
75584;SDS011;64162;53.508;10.476;2024-02-26T15:40:24;9.43;;;5.05;;
75584;SDS011;64162;53.508;10.476;2024-02-26T15:42:51;15.35;;;5.88;;
75584;SDS011;64162;53.508;10.476;2024-02-26T15:47:45;15.85;;;7.45;;
75584;SDS011;64162;53.508;10.476;2024-02-26T15:50:13;15.98;;;7.40;;
75584;SDS011;64162;53.508;10.476;2024-02-26T15:52:40;13.00;;;6.25;;
75584;SDS011;64162;53.508;10.476;2024-02-26T15:57:33;18.83;;;7.70;;
75584;SDS011;64162;53.508;10.476;2024-02-26T16:02:37;13.23;;;6.47;;
75584;SDS011;64162;53.508;10.476;2024-02-26T16:05:04;13.80;;;7.10;;
75584;SDS011;64162;53.508;10.476;2024-02-26T16:07:37;14.40;;;6.60;;
75584;SDS011;64162;53.508;10.476;2024-02-26T16:10:08;15.35;;;7.25;;
75584;SDS011;64162;53.508;10.476;2024-02-26T16:12:42;13.60;;;6.00;;
75584;SDS011;64162;53.508;10.476;2024-02-26T16:15:15;13.63;;;6.30;;